If you wish to contribute or participate in the discussions about articles you are invited to join SKYbrary as a registered user

 Actions

Tokachi-Obihiro Airport

From SKYbrary Wiki

RJCB
Airport
ICAO: RJCB – IATA: OBO
Summary
Name Tokachi-Obihiro Airport
Region Asia and Pacific
Territory Japan JP.gif
Location Obihiro, Hokkaidō
Serving Obihiro
Elevation 149.352 m
490 ft149.352 m
Coordinates 42° 43' 55.95" N, 143° 12' 46.36" E
Runways
Designator Length Width Surface ROPS
17/35 2500 m8,202.1 ft
46 m150.919 ft
ASP yes/yes


METAR
Observation RJCB 240900Z 14008KT 9999 FEW025 BKN/// 15/09 Q1013
Station Obihiro Airport
Date/Time 24 June 2019 09:00:00
Wind direction 140°
Wind speed 08 kts
Lowest cloud amount few clouds
Temperature 15°C
Dew point 9°C
Humidity 67%
QNH 1013 hPa
Weather condition n/a

Tokachi–Obihiro Airport, or sometimes simply Obihiro Airport, is an airport located 13.5 nm25,002 m
25.002 km
82,027.559 ft
south Obihiro, Hokkaidō, Japan.

Climatology

Humid continental climate (Köppen climate classification Dfb)

Maps

Terrain

Loading map...

Airport Layout

Loading map...


Accidents & Serious Incidents at or in vicinity of RJCB

None on SKYbrary